Time;durP1;ratioP1;P1;durP2;ratioP2;P2;SDS_P1;SDS_P2;PMS_P1;PMS_P2;Temp;Humidity;BMP_temperature;BMP_pressure;BME280_temperature;BME280_humidity;BME280_pressure;Samples;Min_cycle;Max_cycle;Signal;HPM_P1;HPM_P2
2022/05/01 00:01:25;;;;;;;11.48;9.15;;;5.40;99.90;;;;;;5033866;28;20045;-80
2022/05/01 00:03:51;;;;;;;14.40;10.45;;;5.20;99.90;;;;;;5034010;28;20033;-80
2022/05/01 00:06:16;;;;;;;12.77;10.20;;;5.20;99.90;;;;;;5032222;28;20038;-80
2022/05/01 00:08:42;;;;;;;14.85;10.45;;;5.20;99.90;;;;;;5034301;28;20068;-80
2022/05/01 00:11:08;;;;;;;11.45;9.50;;;5.20;99.90;;;;;;5033753;28;20041;-80
2022/05/01 00:13:35;;;;;;;13.80;10.32;;;5.20;99.90;;;;;;5034847;28;20042;-80
2022/05/01 00:16:01;;;;;;;15.40;11.30;;;5.30;99.90;;;;;;5033862;28;20120;-80
2022/05/01 00:18:27;;;;;;;13.57;10.68;;;5.20;99.90;;;;;;5034142;28;20040;-80
2022/05/01 00:20:53;;;;;;;12.88;10.02;;;5.20;99.90;;;;;;5034161;28;20496;-80
2022/05/01 00:23:19;;;;;;;13.07;10.35;;;5.10;99.90;;;;;;5032396;28;20037;-80
2022/05/01 00:25:45;;;;;;;14.52;10.57;;;5.00;99.90;;;;;;5034389;28;20065;-80
2022/05/01 00:28:12;;;;;;;12.43;9.98;;;4.90;99.90;;;;;;5032199;28;20088;-80
2022/05/01 00:30:38;;;;;;;12.82;10.35;;;4.90;99.90;;;;;;5032470;28;20033;-80
2022/05/01 00:38:34;;;;;;;13.63;9.88;;;4.70;99.90;;;;;;5033983;28;20111;-80
2022/05/01 00:40:59;;;;;;;13.43;10.38;;;4.60;99.90;;;;;;5033122;28;20042;-80
2022/05/01 00:43:25;;;;;;;12.88;10.02;;;4.50;99.90;;;;;;5033373;28;20037;-80
2022/05/01 00:45:51;;;;;;;13.68;10.38;;;4.50;99.90;;;;;;5031373;28;20038;-80
2022/05/01 00:48:17;;;;;;;12.30;9.63;;;4.50;99.90;;;;;;5033621;28;20047;-81
2022/05/01 00:50:43;;;;;;;12.27;9.70;;;4.50;99.90;;;;;;5031083;28;20041;-81
2022/05/01 00:53:10;;;;;;;12.40;9.73;;;4.50;99.90;;;;;;5033028;28;20053;-81
2022/05/01 00:55:37;;;;;;;11.20;9.07;;;4.50;99.90;;;;;;5031362;28;20075;-82
2022/05/01 00:58:05;;;;;;;12.02;9.10;;;4.50;99.90;;;;;;5031267;28;20038;-81
2022/05/01 01:00:31;;;;;;;12.25;9.60;;;4.50;99.90;;;;;;5035249;28;20092;-81
2022/05/01 01:02:57;;;;;;;11.32;9.23;;;4.50;99.90;;;;;;5035544;28;20037;-81
2022/05/01 01:05:24;;;;;;;11.27;9.25;;;4.40;99.90;;;;;;5035035;28;20108;-80
2022/05/01 01:07:50;;;;;;;14.70;10.20;;;4.50;99.90;;;;;;5035737;28;20045;-80
2022/05/01 01:10:15;;;;;;;12.43;10.02;;;4.40;99.90;;;;;;5035416;28;20472;-81
2022/05/01 01:12:56;;;;;;;11.48;8.75;;;4.40;99.90;;;;;;5035321;28;20125;-81
2022/05/01 01:15:29;;;;;;;10.18;8.27;;;4.30;99.90;;;;;;5034869;28;20095;-81
2022/05/01 01:17:55;;;;;;;14.48;9.73;;;4.20;99.90;;;;;;5036963;28;20037;-81
2022/05/01 01:20:23;;;;;;;13.07;9.88;;;4.20;99.90;;;;;;5035631;28;20042;-81
2022/05/01 01:22:55;;;;;;;11.13;9.32;;;4.20;99.90;;;;;;5035990;28;20464;-81
2022/05/01 01:25:24;;;;;;;11.13;9.48;;;4.20;99.90;;;;;;5035111;28;20048;-81
2022/05/01 01:27:51;;;;;;;13.18;10.15;;;4.20;99.90;;;;;;5035310;28;20041;-81
2022/05/01 01:33:02;;;;;;;11.65;9.65;;;4.10;99.90;;;;;;5036556;28;20530;-81
2022/05/01 01:35:29;;;;;;;11.68;9.38;;;4.00;99.90;;;;;;5034618;28;20124;-81
2022/05/01 01:37:55;;;;;;;12.50;9.27;;;4.00;99.90;;;;;;5035218;28;20042;-81
2022/05/01 01:40:46;;;;;;;12.32;9.70;;;4.00;99.90;;;;;;5034655;28;20041;-81
2022/05/01 01:43:13;;;;;;;12.20;9.60;;;4.10;99.90;;;;;;5035603;28;20522;-82
2022/05/01 01:45:39;;;;;;;13.38;9.30;;;4.10;99.90;;;;;;5034302;28;20034;-81
2022/05/01 01:48:13;;;;;;;12.40;8.52;;;4.10;99.90;;;;;;5034756;28;20415;-81
2022/05/01 01:50:39;;;;;;;13.50;9.38;;;4.10;99.90;;;;;;5034287;28;20041;-82
2022/05/01 01:53:06;;;;;;;12.52;9.60;;;4.00;99.90;;;;;;5034817;28;20509;-81
2022/05/01 01:55:31;;;;;;;11.80;9.38;;;3.90;99.90;;;;;;5034140;28;20049;-83
2022/05/01 01:57:57;;;;;;;13.18;9.27;;;3.80;99.90;;;;;;5033708;28;20060;-82
2022/05/01 02:00:23;;;;;;;12.45;9.45;;;3.80;99.90;;;;;;5033397;28;20586;-81
2022/05/01 02:02:49;;;;;;;10.77;8.88;;;3.80;99.90;;;;;;5033782;28;20042;-81
2022/05/01 02:05:15;;;;;;;11.93;9.60;;;3.70;99.90;;;;;;5032802;28;20052;-81
2022/05/01 02:07:40;;;;;;;11.48;9.02;;;3.70;99.90;;;;;;5033932;28;20503;-82
2022/05/01 02:10:06;;;;;;;11.27;8.65;;;3.70;99.90;;;;;;5033785;28;20128;-82
2022/05/01 02:12:33;;;;;;;10.30;8.18;;;3.70;99.90;;;;;;5033702;28;20049;-82
2022/05/01 02:14:59;;;;;;;10.55;7.80;;;3.70;99.90;;;;;;5033861;28;20434;-81
2022/05/01 02:17:25;;;;;;;12.25;8.50;;;3.60;99.90;;;;;;5034213;28;20111;-81
2022/05/01 02:19:50;;;;;;;10.65;7.78;;;3.60;99.90;;;;;;5033752;28;20046;-80
2022/05/01 02:22:16;;;;;;;6.28;5.40;;;3.50;99.90;;;;;;5035562;28;20050;-81
2022/05/01 02:24:41;;;;;;;8.63;6.32;;;3.50;99.90;;;;;;5033597;28;20411;-81
2022/05/01 02:27:07;;;;;;;6.80;5.97;;;3.50;99.90;;;;;;5049996;28;20088;-81
2022/05/01 02:29:32;;;;;;;8.55;6.95;;;3.50;99.90;;;;;;5033584;28;20073;-81
2022/05/01 02:31:58;;;;;;;8.60;6.70;;;3.50;99.90;;;;;;5035474;28;20548;-81
2022/05/01 02:34:24;;;;;;;9.07;7.13;;;3.40;99.90;;;;;;5033160;28;20052;-81
2022/05/01 02:36:51;;;;;;;8.70;6.93;;;3.40;99.90;;;;;;5033598;28;20052;-81
2022/05/01 02:39:18;;;;;;;9.45;7.55;;;3.40;99.90;;;;;;5035010;28;20044;-81
2022/05/01 02:41:43;;;;;;;10.35;7.90;;;3.50;99.90;;;;;;5033814;28;20419;-82
2022/05/01 02:44:09;;;;;;;9.98;7.93;;;3.30;99.90;;;;;;5033740;28;20033;-81
2022/05/01 02:46:35;;;;;;;10.43;8.23;;;3.20;99.90;;;;;;5034375;28;20037;-82
2022/05/01 02:49:01;;;;;;;9.07;7.07;;;3.00;99.90;;;;;;5033523;28;20069;-82
2022/05/01 02:51:27;;;;;;;9.63;7.88;;;3.10;99.90;;;;;;5032507;28;20053;-82
2022/05/01 02:53:52;;;;;;;11.18;8.52;;;3.00;99.90;;;;;;5034735;28;20470;-82
2022/05/01 02:56:18;;;;;;;10.43;8.40;;;3.10;99.90;;;;;;5035240;28;20052;-82
2022/05/01 02:58:43;;;;;;;11.40;9.00;;;3.10;99.90;;;;;;5034698;28;20051;-82
2022/05/01 03:01:09;;;;;;;10.88;8.48;;;3.10;99.90;;;;;;5033817;28;20041;-82
2022/05/01 03:03:35;;;;;;;10.98;8.88;;;3.10;99.90;;;;;;5033785;28;20563;-82
2022/05/01 03:06:00;;;;;;;9.73;8.20;;;3.20;99.90;;;;;;5033705;28;20120;-82
2022/05/01 03:08:27;;;;;;;10.70;7.93;;;3.10;99.90;;;;;;5034164;28;20077;-82
2022/05/01 03:10:52;;;;;;;7.97;6.30;;;3.20;99.90;;;;;;5033978;28;20079;-82
2022/05/01 03:13:18;;;;;;;9.20;7.10;;;3.10;99.90;;;;;;5033710;28;20037;-82
2022/05/01 03:15:44;;;;;;;11.05;9.05;;;3.10;99.90;;;;;;5033379;28;20820;-82
2022/05/01 03:23:39;;;;;;;14.23;9.82;;;3.00;99.90;;;;;;5032295;28;20439;-82
2022/05/01 03:26:04;;;;;;;14.40;10.65;;;3.10;99.90;;;;;;5033553;28;20069;-82
2022/05/01 03:28:30;;;;;;;13.00;10.00;;;3.10;99.90;;;;;;5033133;28;20041;-82
2022/05/01 03:30:58;;;;;;;14.02;11.13;;;3.10;99.90;;;;;;5032984;28;20625;-82
2022/05/01 03:33:25;;;;;;;14.65;11.23;;;3.10;99.90;;;;;;5033619;28;20033;-82
2022/05/01 03:35:51;;;;;;;14.75;10.52;;;3.10;99.90;;;;;;5033079;28;20045;-82
2022/05/01 03:38:17;;;;;;;13.43;10.52;;;3.00;99.90;;;;;;5032691;28;20125;-82
2022/05/01 03:40:45;;;;;;;16.00;11.88;;;3.00;99.90;;;;;;5031584;28;20487;-82
2022/05/01 03:43:14;;;;;;;12.48;10.23;;;2.90;99.90;;;;;;5032841;28;20092;-82
2022/05/01 03:45:40;;;;;;;10.80;8.77;;;2.90;99.90;;;;;;5031586;28;20487;-82
2022/05/01 03:48:06;;;;;;;14.85;10.07;;;2.80;99.90;;;;;;5031665;28;20124;-82
2022/05/01 03:50:31;;;;;;;11.68;8.90;;;2.70;99.90;;;;;;5032441;28;20133;-82
2022/05/01 03:52:57;;;;;;;13.63;9.60;;;2.60;99.90;;;;;;5031237;28;20049;-82
2022/05/01 03:55:22;;;;;;;13.82;10.52;;;2.50;99.90;;;;;;5031068;28;20045;-82
2022/05/01 03:57:48;;;;;;;13.65;10.32;;;2.40;99.90;;;;;;5031153;28;20120;-82
2022/05/01 04:00:18;;;;;;;14.60;10.65;;;2.40;99.90;;;;;;5032548;28;20415;-82
2022/05/01 04:02:45;;;;;;;15.10;11.13;;;2.40;99.90;;;;;;5030677;28;20045;-83
2022/05/01 04:05:12;;;;;;;15.23;11.15;;;2.40;99.90;;;;;;5030707;28;20381;-82
2022/05/01 04:07:39;;;;;;;15.95;11.82;;;2.50;99.90;;;;;;5030622;28;20037;-83
2022/05/01 04:10:05;;;;;;;16.55;12.50;;;2.50;99.90;;;;;;5030320;28;20052;-82
2022/05/01 04:12:38;;;;;;;16.75;12.23;;;2.60;99.90;;;;;;5031836;28;20457;-83
2022/05/01 04:15:07;;;;;;;18.05;13.45;;;2.70;99.90;;;;;;5030169;28;20041;-82
2022/05/01 04:17:38;;;;;;;17.58;12.18;;;2.60;99.90;;;;;;5030552;28;20038;-82
2022/05/01 04:20:08;;;;;;;13.10;10.13;;;2.50;99.90;;;;;;5030764;28;20124;-83
2022/05/01 04:22:41;;;;;;;16.42;12.32;;;2.40;99.90;;;;;;5032548;28;20411;-83
2022/05/01 04:25:17;;;;;;;14.13;10.60;;;2.40;99.90;;;;;;5031951;28;20083;-82
2022/05/01 04:27:49;;;;;;;13.20;10.27;;;2.30;99.90;;;;;;5031606;28;20045;-82
2022/05/01 04:30:16;;;;;;;13.05;10.32;;;2.20;99.90;;;;;;5030774;28;20518;-83
2022/05/01 04:32:50;;;;;;;14.90;10.40;;;2.20;99.90;;;;;;5031836;28;20051;-83
2022/05/01 04:35:31;;;;;;;13.50;10.02;;;2.30;99.90;;;;;;5030124;28;20081;-83
2022/05/01 04:37:59;;;;;;;13.77;10.10;;;2.40;99.90;;;;;;5031543;28;20037;-82
2022/05/01 04:40:28;;;;;;;11.70;9.50;;;2.40;99.90;;;;;;5031207;28;20103;-83
2022/05/01 04:43:09;;;;;;;14.05;10.93;;;2.50;99.90;;;;;;5030467;28;20045;-82
2022/05/01 04:45:37;;;;;;;13.40;10.23;;;2.50;99.90;;;;;;5030133;28;20037;-83
2022/05/01 04:48:04;;;;;;;17.13;12.43;;;2.50;99.90;;;;;;5029882;28;20054;-83
2022/05/01 04:50:30;;;;;;;19.70;14.45;;;2.50;99.90;;;;;;5030003;28;20048;-83
2022/05/01 04:52:57;;;;;;;17.52;13.57;;;2.40;99.90;;;;;;5030324;28;20046;-83
2022/05/01 04:55:22;;;;;;;16.80;13.68;;;2.30;99.90;;;;;;5030240;28;20072;-83
2022/05/01 04:57:49;;;;;;;16.63;12.93;;;2.30;99.90;;;;;;5031215;28;20507;-82
2022/05/01 05:00:18;;;;;;;13.38;10.88;;;2.20;99.90;;;;;;5030053;28;20060;-82
2022/05/01 05:02:45;;;;;;;12.52;10.85;;;2.20;99.90;;;;;;5030030;28;20046;-82
2022/05/01 05:05:12;;;;;;;13.27;10.27;;;2.10;99.90;;;;;;5029994;28;20087;-82
2022/05/01 05:07:38;;;;;;;12.38;10.55;;;2.20;99.90;;;;;;5029943;28;20076;-82
2022/05/01 05:10:05;;;;;;;12.45;11.05;;;2.20;99.90;;;;;;5029763;28;20045;-83
2022/05/01 05:12:32;;;;;;;12.38;10.55;;;2.20;99.90;;;;;;5029886;28;20045;-83
2022/05/01 05:15:00;;;;;;;12.80;10.25;;;2.30;99.90;;;;;;5029907;28;20407;-83
2022/05/01 05:17:27;;;;;;;12.52;10.70;;;2.40;99.90;;;;;;5030224;28;20037;-83
2022/05/01 05:19:54;;;;;;;13.70;11.07;;;2.60;99.90;;;;;;5029988;28;20111;-82
2022/05/01 05:22:20;;;;;;;13.05;10.70;;;2.80;99.90;;;;;;5030263;28;20426;-82
2022/05/01 05:24:46;;;;;;;12.85;10.63;;;3.00;99.90;;;;;;5029700;28;20511;-82
2022/05/01 05:27:12;;;;;;;13.00;10.98;;;3.20;99.90;;;;;;5030325;28;20041;-82
2022/05/01 05:29:38;;;;;;;18.33;11.35;;;3.40;99.90;;;;;;5031880;28;20030;-82
2022/05/01 05:32:05;;;;;;;14.35;11.98;;;3.60;99.90;;;;;;5031291;28;20088;-82
2022/05/01 05:34:30;;;;;;;15.02;12.57;;;3.60;99.90;;;;;;5031944;28;20037;-82
2022/05/01 05:36:56;;;;;;;13.93;11.68;;;3.60;99.90;;;;;;5032174;28;20504;-82
2022/05/01 05:39:22;;;;;;;14.45;11.73;;;3.60;99.90;;;;;;5030954;28;20037;-82
2022/05/01 05:41:47;;;;;;;14.70;11.93;;;3.70;99.90;;;;;;5029695;28;20041;-83
2022/05/01 05:44:13;;;;;;;13.93;11.38;;;3.70;99.90;;;;;;5031641;28;20107;-83
2022/05/01 05:46:38;;;;;;;14.25;11.40;;;3.90;99.90;;;;;;5033610;28;20050;-83
2022/05/01 05:49:04;;;;;;;14.98;11.98;;;4.00;99.90;;;;;;5033402;28;20046;-83
2022/05/01 05:51:30;;;;;;;14.13;11.63;;;4.10;99.90;;;;;;5034482;28;20042;-83
2022/05/01 05:53:56;;;;;;;13.95;11.77;;;4.10;99.90;;;;;;5034045;28;20042;-83
2022/05/01 05:56:22;;;;;;;14.57;11.43;;;4.20;99.90;;;;;;5033481;28;20049;-83
2022/05/01 05:58:48;;;;;;;14.65;11.88;;;4.40;99.90;;;;;;5032695;28;20045;-83
2022/05/01 06:01:14;;;;;;;14.98;11.27;;;4.50;99.90;;;;;;5032698;28;20042;-82
2022/05/01 06:03:41;;;;;;;17.88;12.13;;;4.60;99.90;;;;;;5044933;28;20104;-83
2022/05/01 06:06:07;;;;;;;13.25;11.27;;;4.70;99.90;;;;;;5034184;28;20037;-83
2022/05/01 06:08:35;;;;;;;14.00;11.70;;;4.90;99.90;;;;;;5033518;28;20046;-83
2022/05/01 06:11:01;;;;;;;13.52;11.27;;;5.00;99.90;;;;;;5050362;28;20045;-82
2022/05/01 06:13:27;;;;;;;14.13;11.98;;;5.10;99.90;;;;;;5033872;28;20119;-83
2022/05/01 06:15:52;;;;;;;17.48;11.32;;;5.30;99.90;;;;;;5033373;28;20685;-83
2022/05/01 06:18:18;;;;;;;13.48;11.45;;;5.50;99.90;;;;;;5031601;28;20072;-83
2022/05/01 06:20:44;;;;;;;15.38;11.77;;;5.60;99.90;;;;;;5035978;28;20531;-83
2022/05/01 06:23:10;;;;;;;13.18;11.18;;;5.80;99.90;;;;;;5036075;28;20033;-82
2022/05/01 06:25:36;;;;;;;14.10;11.93;;;6.00;99.90;;;;;;5036574;28;20033;-83
2022/05/01 06:28:01;;;;;;;13.60;10.85;;;6.10;99.90;;;;;;5035665;28;20044;-83
2022/05/01 06:30:27;;;;;;;12.75;11.27;;;6.30;99.90;;;;;;5034999;28;20402;-83
2022/05/01 06:32:53;;;;;;;12.85;10.40;;;6.40;99.90;;;;;;5034598;28;20037;-84
2022/05/01 06:35:19;;;;;;;12.60;10.93;;;6.60;99.90;;;;;;5033950;28;20115;-84
2022/05/01 06:37:45;;;;;;;13.43;10.30;;;6.70;99.90;;;;;;5033383;28;20063;-83
2022/05/01 06:40:11;;;;;;;14.18;11.25;;;6.90;99.90;;;;;;5033570;28;20046;-84
2022/05/01 06:42:38;;;;;;;11.80;10.40;;;7.00;99.90;;;;;;5032215;28;20086;-84
2022/05/01 06:45:04;;;;;;;15.07;10.93;;;7.10;99.90;;;;;;5031777;28;20080;-84
2022/05/01 06:47:30;;;;;;;12.93;9.65;;;7.40;99.90;;;;;;5030501;28;20045;-85
2022/05/01 06:49:56;;;;;;;12.68;10.45;;;7.50;99.90;;;;;;5029246;28;20406;-84
2022/05/01 06:52:23;;;;;;;12.88;9.85;;;7.70;99.90;;;;;;5030332;28;20041;-84
2022/05/01 06:54:55;;;;;;;10.98;9.80;;;7.90;99.90;;;;;;5026374;28;20037;-84
2022/05/01 06:57:21;;;;;;;11.80;10.60;;;8.10;99.90;;;;;;5025908;28;20171;-84
2022/05/01 06:59:47;;;;;;;13.07;10.23;;;8.30;99.90;;;;;;5029774;28;20128;-84
2022/05/01 07:02:14;;;;;;;14.38;10.02;;;8.50;99.90;;;;;;5029233;28;20044;-83
2022/05/01 07:04:40;;;;;;;13.10;9.05;;;8.60;99.90;;;;;;5022999;28;20041;-84
2022/05/01 07:07:05;;;;;;;9.98;7.78;;;8.70;99.90;;;;;;5029625;28;20667;-83
2022/05/01 07:09:31;;;;;;;10.13;8.57;;;8.90;99.90;;;;;;5023652;28;20033;-84
2022/05/01 07:11:57;;;;;;;9.95;8.40;;;9.00;99.90;;;;;;5028018;28;20444;-84
2022/05/01 07:14:23;;;;;;;12.77;7.97;;;9.20;99.90;;;;;;5021984;28;20050;-84
2022/05/01 07:16:49;;;;;;;11.98;7.97;;;9.40;99.90;;;;;;5032473;28;20091;-84
2022/05/01 07:19:14;;;;;;;10.85;7.47;;;9.40;99.90;;;;;;5029947;28;20042;-84
2022/05/01 07:21:40;;;;;;;10.57;7.85;;;9.60;99.90;;;;;;5029474;28;20120;-84
2022/05/01 07:24:06;;;;;;;12.68;7.53;;;9.80;99.90;;;;;;5030561;28;20045;-84
2022/05/01 07:26:35;;;;;;;9.60;7.35;;;10.00;99.90;;;;;;5029571;28;20047;-84
2022/05/01 07:29:02;;;;;;;12.90;8.25;;;10.20;99.90;;;;;;5030610;28;20041;-84
2022/05/01 07:31:27;;;;;;;9.55;5.72;;;10.10;99.90;;;;;;5027654;28;20107;-84
2022/05/01 07:33:53;;;;;;;6.85;4.45;;;10.10;99.90;;;;;;5026364;28;20049;-84
2022/05/01 07:36:19;;;;;;;6.50;5.15;;;10.20;99.90;;;;;;5030357;28;20064;-84
2022/05/01 07:38:46;;;;;;;7.35;5.10;;;10.30;99.90;;;;;;5030472;28;20056;-84
2022/05/01 07:41:12;;;;;;;7.15;5.70;;;10.40;99.90;;;;;;5030871;28;20100;-83
2022/05/01 07:43:38;;;;;;;6.38;4.93;;;10.70;99.90;;;;;;5027400;28;20553;-84
2022/05/01 07:46:05;;;;;;;6.63;4.75;;;10.80;99.90;;;;;;5027419;28;20037;-83
2022/05/01 07:48:30;;;;;;;8.32;5.05;;;10.50;99.90;;;;;;5028857;28;20033;-84
2022/05/01 07:50:56;;;;;;;8.93;6.20;;;10.40;99.90;;;;;;5028440;28;20064;-85
2022/05/01 07:53:22;;;;;;;7.65;5.75;;;10.20;99.90;;;;;;5025808;28;20033;-84
2022/05/01 07:55:47;;;;;;;6.63;5.20;;;10.10;99.90;;;;;;5028959;28;20048;-84
2022/05/01 07:58:13;;;;;;;7.05;5.38;;;10.10;99.90;;;;;;5023173;28;20042;-84
2022/05/01 08:00:38;;;;;;;6.60;5.78;;;10.30;99.90;;;;;;5029191;28;20053;-84
2022/05/01 08:05:53;;;;;;;8.68;5.60;;;11.00;99.90;;;;;;5007012;28;20103;-83
2022/05/01 08:08:18;;;;;;;7.80;5.20;;;11.40;99.90;;;;;;5026488;28;20747;-84
2022/05/01 08:10:44;;;;;;;8.02;5.03;;;11.70;99.90;;;;;;5027860;28;20041;-84
2022/05/01 08:13:09;;;;;;;7.18;4.90;;;12.00;99.90;;;;;;5025249;28;20037;-83
2022/05/01 08:15:35;;;;;;;7.88;5.00;;;12.10;99.90;;;;;;5026309;28;20527;-83
2022/05/01 08:23:28;;;;;;;7.25;4.70;;;12.60;99.90;;;;;;5029730;28;20004;-84
2022/05/01 08:25:54;;;;;;;6.05;4.32;;;12.30;99.90;;;;;;5028299;28;20451;-84
2022/05/01 08:28:20;;;;;;;8.48;4.47;;;12.20;99.90;;;;;;5029702;28;20061;-84
2022/05/01 08:30:45;;;;;;;6.63;4.70;;;12.10;99.90;;;;;;5029919;28;20175;-84
2022/05/01 08:33:11;;;;;;;7.57;5.28;;;12.10;99.90;;;;;;5027600;28;20507;-84
2022/05/01 08:35:36;;;;;;;8.52;4.80;;;12.20;99.90;;;;;;5028656;28;20495;-83
2022/05/01 08:38:02;;;;;;;7.50;4.80;;;12.20;99.90;;;;;;5030011;28;20021;-83
2022/05/01 08:40:27;;;;;;;6.45;4.30;;;12.20;99.90;;;;;;5028805;28;20137;-83
2022/05/01 08:42:53;;;;;;;7.88;5.70;;;12.00;99.90;;;;;;5029747;28;20029;-84
2022/05/01 08:45:25;;;;;;;7.72;5.38;;;11.90;99.90;;;;;;5030789;28;20037;-83
2022/05/01 08:48:07;;;;;;;7.82;5.43;;;11.70;99.90;;;;;;5029885;28;20449;-83
2022/05/01 08:50:38;;;;;;;7.18;4.90;;;11.50;99.90;;;;;;5027420;28;20073;-83
2022/05/01 08:53:06;;;;;;;7.45;4.93;;;11.30;99.90;;;;;;5029627;28;20091;-83
2022/05/01 08:55:32;;;;;;;6.10;4.80;;;11.20;99.90;;;;;;5030178;28;20132;-83
2022/05/01 08:57:59;;;;;;;6.53;5.05;;;11.10;99.90;;;;;;5030117;28;20100;-84
2022/05/01 09:00:26;;;;;;;7.55;5.10;;;11.30;99.90;;;;;;5030451;28;20561;-83
2022/05/01 09:02:52;;;;;;;6.45;4.60;;;11.50;99.90;;;;;;5029013;28;20037;-83
2022/05/01 09:05:17;;;;;;;7.40;4.95;;;11.50;99.90;;;;;;5029786;28;20034;-84
2022/05/01 09:07:43;;;;;;;6.22;4.50;;;11.70;99.90;;;;;;5028506;28;20049;-83
2022/05/01 09:10:09;;;;;;;8.57;5.40;;;11.80;99.90;;;;;;5028838;28;20045;-83
2022/05/01 09:12:50;;;;;;;8.15;4.60;;;12.00;99.90;;;;;;5032808;28;20034;-83
2022/05/01 09:15:33;;;;;;;7.85;4.85;;;12.30;99.90;;;;;;5034298;28;20536;-83
2022/05/01 09:18:08;;;;;;;7.60;4.80;;;12.50;99.90;;;;;;5028843;28;20443;-83
2022/05/01 09:20:36;;;;;;;6.57;5.00;;;12.50;99.90;;;;;;5038292;28;20507;-82
2022/05/01 09:23:02;;;;;;;8.13;5.10;;;12.70;99.90;;;;;;5035711;28;20034;-82
2022/05/01 09:25:29;;;;;;;6.32;4.95;;;12.80;99.90;;;;;;5035637;28;20036;-82
2022/05/01 09:28:02;;;;;;;7.82;4.85;;;12.90;99.90;;;;;;5025483;28;20045;-83
2022/05/01 09:30:33;;;;;;;6.55;4.47;;;12.90;99.90;;;;;;5033234;28;20558;-81
2022/05/01 09:33:00;;;;;;;9.35;4.88;;;13.00;99.90;;;;;;5035470;28;20145;-81
2022/05/01 09:35:34;;;;;;;7.60;5.30;;;12.90;99.90;;;;;;5034502;28;20056;-83
2022/05/01 09:38:16;;;;;;;8.00;4.32;;;12.90;99.90;;;;;;5033504;28;20459;-81
2022/05/01 09:40:44;;;;;;;7.20;4.25;;;13.10;99.90;;;;;;5035745;28;20042;-81
2022/05/01 09:43:41;;;;;;;6.78;4.20;;;13.20;99.90;;;;;;5031585;28;20069;-83
2022/05/01 09:46:10;;;;;;;6.05;4.40;;;13.30;99.90;;;;;;5033283;28;20078;-83
2022/05/01 09:48:36;;;;;;;7.40;4.90;;;13.40;99.90;;;;;;5037266;28;20037;-83
2022/05/01 09:51:14;;;;;;;5.95;4.25;;;13.50;99.90;;;;;;5028967;28;20086;-82
2022/05/01 09:53:42;;;;;;;6.40;4.35;;;13.70;99.90;;;;;;5037392;28;20037;-82
2022/05/01 09:56:08;;;;;;;9.15;4.50;;;13.90;99.90;;;;;;5028672;28;20419;-82
2022/05/01 09:58:33;;;;;;;7.57;4.28;;;14.10;99.90;;;;;;5027821;28;20069;-82
2022/05/01 10:01:08;;;;;;;6.47;4.47;;;14.20;99.90;;;;;;5038147;28;20571;-81
2022/05/01 10:03:35;;;;;;;7.15;4.78;;;14.40;99.90;;;;;;5035373;28;20037;-81
2022/05/01 10:06:00;;;;;;;6.40;4.75;;;14.50;99.90;;;;;;5032719;28;20116;-81
2022/05/01 10:08:26;;;;;;;5.65;4.20;;;14.30;99.90;;;;;;5034915;28;20068;-82
2022/05/01 10:10:58;;;;;;;6.55;4.70;;;14.20;99.90;;;;;;5035264;28;20045;-82
2022/05/01 10:13:27;;;;;;;7.88;4.70;;;14.10;99.90;;;;;;5037099;28;20116;-81
2022/05/01 10:15:54;;;;;;;7.57;4.57;;;14.30;99.90;;;;;;5037335;28;20037;-82
2022/05/01 10:18:20;;;;;;;5.82;4.70;;;14.30;99.90;;;;;;5034255;28;20041;-83
2022/05/01 10:20:47;;;;;;;4.88;4.32;;;14.50;99.90;;;;;;5031397;28;20041;-81
2022/05/01 10:23:14;;;;;;;5.47;4.60;;;14.60;99.90;;;;;;5033513;28;20045;-81
2022/05/01 10:25:49;;;;;;;6.07;4.43;;;14.70;99.90;;;;;;5029540;28;20047;-81
2022/05/01 10:28:18;;;;;;;9.02;4.78;;;14.80;99.90;;;;;;5034235;28;20097;-81
2022/05/01 10:34:25;;;;;;;8.93;5.30;;;15.10;99.90;;;;;;5032301;28;20120;-81
2022/05/01 10:36:54;;;;;;;8.40;5.30;;;14.70;99.90;;;;;;5039534;28;20045;-81
2022/05/01 10:39:21;;;;;;;7.28;4.80;;;14.40;99.90;;;;;;5023804;28;20037;-81
2022/05/01 10:41:47;;;;;;;5.45;4.68;;;14.10;99.90;;;;;;5040351;28;20427;-81
2022/05/01 10:44:36;;;;;;;7.10;5.07;;;13.70;99.90;;;;;;5038103;28;20120;-81
2022/05/01 10:47:12;;;;;;;6.45;4.50;;;13.60;99.90;;;;;;5037319;28;20041;-80
2022/05/01 10:49:42;;;;;;;7.18;4.90;;;13.60;99.90;;;;;;5033114;28;20450;-81
2022/05/01 10:52:20;;;;;;;7.25;5.30;;;13.40;99.90;;;;;;5032183;28;20042;-80
2022/05/01 10:54:52;;;;;;;8.13;5.53;;;13.30;99.90;;;;;;5018917;28;20050;-80
2022/05/01 10:57:18;;;;;;;7.40;4.93;;;13.30;99.90;;;;;;5031894;28;20064;-80
2022/05/01 10:59:48;;;;;;;8.75;5.20;;;13.20;99.90;;;;;;5038398;28;20037;-80
2022/05/01 11:02:19;;;;;;;7.78;5.13;;;13.10;99.90;;;;;;5038683;28;20407;-80
2022/05/01 11:04:45;;;;;;;6.95;5.97;;;13.10;99.90;;;;;;5035669;28;20117;-81
2022/05/01 11:07:13;;;;;;;7.72;5.28;;;13.20;99.90;;;;;;5038969;28;20060;-81
2022/05/01 11:09:42;;;;;;;8.18;5.28;;;13.10;99.90;;;;;;5038285;28;20388;-81
2022/05/01 11:12:09;;;;;;;6.40;4.78;;;13.10;99.90;;;;;;5040840;28;20049;-81
2022/05/01 11:14:51;;;;;;;8.50;5.07;;;13.40;99.90;;;;;;5038156;28;20041;-81
2022/05/01 11:17:47;;;;;;;7.32;4.97;;;13.70;99.90;;;;;;5038241;28;20041;-81
2022/05/01 11:20:19;;;;;;;7.00;5.18;;;13.90;99.90;;;;;;5039065;28;20136;-80
2022/05/01 11:22:45;;;;;;;6.13;4.70;;;14.00;99.90;;;;;;5034308;28;20440;-81
2022/05/01 11:25:16;;;;;;;6.90;5.05;;;14.10;99.90;;;;;;5036276;28;20056;-81
2022/05/01 11:27:50;;;;;;;8.40;5.10;;;14.30;99.90;;;;;;5022729;28;20033;-81
2022/05/01 11:30:31;;;;;;;6.72;4.95;;;14.60;99.90;;;;;;5034937;28;20033;-81
2022/05/01 11:33:06;;;;;;;8.98;4.57;;;14.90;99.90;;;;;;5027943;28;20033;-81
2022/05/01 11:35:54;;;;;;;9.35;4.80;;;15.10;99.90;;;;;;5035302;28;20111;-81
2022/05/01 11:38:29;;;;;;;7.38;5.10;;;15.20;99.90;;;;;;5027544;28;20144;-80
2022/05/01 11:41:00;;;;;;;9.52;4.40;;;15.00;99.90;;;;;;5030797;28;20037;-81
2022/05/01 11:43:30;;;;;;;5.80;4.22;;;15.10;99.90;;;;;;5040646;28;20029;-81
2022/05/01 11:46:01;;;;;;;10.30;4.90;;;15.40;99.90;;;;;;5033474;28;20030;-81
2022/05/01 11:48:27;;;;;;;7.00;4.55;;;15.60;99.90;;;;;;5026294;28;20118;-81
2022/05/01 11:50:58;;;;;;;6.10;4.10;;;15.80;99.90;;;;;;5036207;28;20040;-81
2022/05/01 11:53:29;;;;;;;8.82;4.55;;;15.40;99.90;;;;;;5022580;28;20052;-81
2022/05/01 12:04:32;;;;;;;6.93;4.18;;;15.10;99.90;;;;;;5014216;28;20069;-80
2022/05/01 12:07:17;;;;;;;5.28;4.38;;;15.00;99.90;;;;;;5024207;28;20459;-80
2022/05/01 12:09:46;;;;;;;8.15;4.90;;;14.80;99.90;;;;;;5031086;28;20045;-80
2022/05/01 12:12:13;;;;;;;6.28;4.25;;;14.60;99.80;;;;;;5033344;28;20467;-80
2022/05/01 12:14:40;;;;;;;8.98;4.43;;;14.70;99.90;;;;;;5034669;28;20051;-80
2022/05/01 12:17:14;;;;;;;5.57;4.55;;;14.90;99.90;;;;;;5030109;28;20034;-81
2022/05/01 12:19:46;;;;;;;5.53;4.10;;;15.10;99.70;;;;;;5033259;28;20046;-81
2022/05/01 12:22:17;;;;;;;7.28;3.80;;;15.80;99.90;;;;;;5036794;28;20117;-81
2022/05/01 12:24:43;;;;;;;4.95;4.10;;;16.30;99.40;;;;;;5022550;28;20424;-80
2022/05/01 12:27:11;;;;;;;5.85;3.95;;;16.50;98.30;;;;;;5035685;28;20037;-80
2022/05/01 12:29:39;;;;;;;5.40;3.70;;;16.60;97.50;;;;;;5035889;28;20091;-81
2022/05/01 12:32:13;;;;;;;4.55;3.58;;;16.90;97.50;;;;;;5036400;28;20052;-81
2022/05/01 12:34:55;;;;;;;4.72;3.28;;;17.40;97.80;;;;;;5038935;28;20077;-80
2022/05/01 12:37:30;;;;;;;5.78;3.60;;;17.60;97.20;;;;;;5040175;28;20045;-81
2022/05/01 12:40:03;;;;;;;4.90;3.78;;;17.40;96.70;;;;;;5041188;28;20041;-81
2022/05/01 12:45:20;;;;;;;4.72;3.35;;;17.00;94.20;;;;;;5030093;28;20046;-81
2022/05/01 12:47:53;;;;;;;5.35;3.25;;;16.90;95.30;;;;;;5029062;28;20066;-80
2022/05/01 12:50:18;;;;;;;5.85;3.47;;;16.90;95.00;;;;;;5040203;28;20502;-80
2022/05/01 12:52:45;;;;;;;4.03;3.20;;;16.70;94.90;;;;;;5037308;28;20044;-80
2022/05/01 12:55:16;;;;;;;5.95;3.33;;;16.40;94.30;;;;;;5039183;28;20045;-81
2022/05/01 12:57:49;;;;;;;6.47;3.53;;;16.80;95.20;;;;;;5046159;28;20402;-81
2022/05/01 13:00:34;;;;;;;5.60;3.20;;;17.30;95.20;;;;;;5042618;28;20099;-81
2022/05/01 13:03:24;;;;;;;5.05;3.20;;;17.60;90.60;;;;;;5030653;28;20041;-81
2022/05/01 13:06:12;;;;;;;4.60;3.17;;;18.30;93.80;;;;;;5032262;28;20038;-81
2022/05/01 13:08:52;;;;;;;6.75;3.45;;;18.70;93.70;;;;;;5045800;28;20037;-81
2022/05/01 13:11:25;;;;;;;4.65;3.42;;;17.90;92.60;;;;;;5041962;28;20056;-81
2022/05/01 13:13:59;;;;;;;5.17;3.50;;;17.70;93.50;;;;;;5042294;28;20185;-81
2022/05/01 13:16:30;;;;;;;3.80;3.00;;;17.50;90.90;;;;;;5041930;28;20457;-80
2022/05/01 13:19:02;;;;;;;4.53;3.28;;;17.30;93.30;;;;;;5042959;28;20130;-80
2022/05/01 13:21:30;;;;;;;5.47;3.10;;;17.00;93.60;;;;;;5040206;28;20064;-81
2022/05/01 13:24:22;;;;;;;7.25;3.50;;;16.80;93.90;;;;;;5037664;28;20196;-81
2022/05/01 13:26:47;;;;;;;4.40;3.13;;;16.80;94.00;;;;;;5029318;28;20045;-81